Track Сафонов Александр

Time Latitude Longitude Accuracy (66% radius in meters) Altitude (meters) Speed (km/hour) Bearing (degrees) Battery (%) GPS flag
10:53:19 51.753706 39.189482 12 181.12469178336 0 172.99136352539 74 1 delete
10:53:07 51.753706 39.189482 12 181.39792692598 0 172.99136352539 74 1 delete
10:52:55 51.753706 39.189482 8 181.50790071732 0 172.99136352539 74 1 delete
10:52:46 51.753706 39.189482 12 181.47785610671 0 172.99136352539 74 1 delete
10:52:34 51.753706 39.189482 8 181.57927979402 0 172.99136352539 74 1 delete
10:52:19 51.753706 39.189482 12 181.74501318475 0 172.99136352539 74 1 delete
10:52:07 51.753706 39.189482 12 181.93540792751 0 172.99136352539 74 1 delete
10:51:55 51.753706 39.189482 12 182.30384940194 0 172.99136352539 74 1 delete
10:51:46 51.753706 39.189482 12 182.45738674988 0 172.99136352539 74 1 delete
10:51:31 51.753706 39.189482 8 182.79275399599 0 172.99136352539 74 1 delete
10:51:22 51.753706 39.189482 8 182.97676338626 0 172.99136352539 74 1 delete
10:51:10 51.753706 39.189482 8 183.39852741472 0 172.99136352539 74 1 delete
10:50:58 51.753706 39.189482 16 183.78165574196 0 172.99136352539 74 1 delete
10:50:46 51.753706 39.189482 16 184.30753004607 0 172.99136352539 74 1 delete
10:50:34 51.753706 39.189482 12 184.24959626814 0 172.99136352539 74 1 delete
10:50:22 51.753706 39.189482 8 183.79787533034 0 172.99136352539 74 1 delete
10:50:10 51.753706 39.189482 16 183.50335329165 0 172.99136352539 74 1 delete
10:49:58 51.753706 39.189482 4 183.49872855941 0 172.99136352539 74 1 delete
10:49:46 51.753706 39.189482 8 183.56394287691 0 172.99136352539 74 1 delete
10:49:34 51.753706 39.189482 8 183.43122480856 0 172.99136352539 74 1 delete
10:49:22 51.753706 39.189482 12 183.82437554241 0 172.99136352539 74 1 delete
10:49:10 51.753706 39.189482 8 183.93394002553 0 172.99136352539 74 1 delete
10:48:58 51.753706 39.189482 12 183.96894889521 0 172.99136352539 74 1 delete
10:48:46 51.753706 39.189482 12 184.11252342126 0 172.99136352539 74 1 delete
10:48:36 51.753706 39.189482 12 184.14097630522 0 172.99136352539 74 1 delete
10:48:24 51.753706 39.189482 6 183.9941320517 0 172.99136352539 74 1 delete
10:48:12 51.753706 39.189482 8 183.99691990933 0 172.99136352539 74 1 delete
10:48:00 51.753706 39.189482 12 184.05038343198 0 172.99136352539 74 1 delete
10:47:48 51.753706 39.189482 12 184.28197211754 0 172.99136352539 74 1 delete
10:47:36 51.753706 39.189482 12 184.59347241684 0 172.99136352539 74 1 delete
10:47:24 51.753706 39.189482 12 185.03056262412 0 172.99136352539 74 1 delete
10:47:12 51.753706 39.189482 8 185.43340296464 0 172.99136352539 74 1 delete
10:46:58 51.753706 39.189482 12 185.78535360964 0 172.99136352539 74 1 delete
10:46:46 51.753706 39.189482 16 186.08035372974 0 172.99136352539 74 1 delete
10:46:34 51.753706 39.189482 8 186.17984871654 0 172.99136352539 74 1 delete
10:46:22 51.753706 39.189482 16 186.46048017459 0 172.99136352539 74 1 delete
10:46:10 51.753706 39.189482 16 186.70065007124 0 172.99136352539 74 1 delete
10:45:55 51.753706 39.189482 16 186.6479975769 0 172.99136352539 74 1 delete
10:45:43 51.753706 39.189482 12 186.59049496265 0 172.99136352539 74 1 delete
10:45:31 51.753706 39.189482 8 186.48870105292 0 172.99136352539 74 1 delete
10:45:15 51.753706 39.189482 4 186.65759749654 0 172.99136352539 74 1 delete
10:45:03 51.753706 39.189482 6 186.7676134832 0 172.99136352539 74 1 delete
10:44:51 51.753706 39.189482 8 186.5396014677 0 172.99136352539 74 1 delete
10:44:43 51.753706 39.189482 16 186.66741895465 0 172.99136352539 74 1 delete
10:44:31 51.753706 39.189482 12 186.77035644335 0 172.99136352539 74 1 delete
10:44:22 51.753706 39.189482 8 186.75927820565 0.0013017356395721 172.99136352539 74 1 delete
10:44:12 51.753706 39.189482 8 186.63822537147 0 172.99136352539 74 1 delete
10:44:00 51.753706 39.189482 12 186.74978250597 0 172.99136352539 74 1 delete
10:43:48 51.753706 39.189482 6 186.81357075961 0 172.99136352539 74 1 delete
10:43:39 51.753706 39.189482 24 186.66540269955 0 172.99136352539 78 1 delete